Lewiston, ID (83501)

8:55 AM PDT on April 28, 2017 (GMT -0700)
Normal Hill | | Change Station

Elev 879 ft 46.41 °N, 117.02 °W | Updated 13 seconds ago

Overcast
Overcast
53.5 °F
Feels Like 53.5 °F
N
0.0
Wind Variable Wind from SSE

Today
High -- | Low -- °F
--% Chance of Precip.
Yesterday
High -- | Low -- °F
Precip. -- in
Pressure 30.17 in
Visibility 10.0 miles
Clouds Overcast 6500 ft
Dew Point 37 °F
Humidity 55%
Rainfall 0.00 in
Snow Depth Not available.
5:38 AM 7:53 PM
Waxing Crescent, 7% visible
METAR KLWS 281456Z 07003KT 10SM OVC065 08/02 A3015 RMK AO2 SLP216 T00830022 53028
Pressure 30.17 in
Visibility 10.0 miles
Clouds Overcast 6500 ft
Dew Point 37 °F
Humidity 55%
Rainfall 0.00 in
Snow Depth Not available.
5:38 AM 7:53 PM
Waxing Crescent, 7% visible
METAR KLWS 281456Z 07003KT 10SM OVC065 08/02 A3015 RMK AO2 SLP216 T00830022 53028

Get Severe Weather Alerts

Thanks for signing up!

Be on the lookout for a verification email in your inbox.

You'll start receiving the daily forecast at 8 AM.

×

10-Day Weather Forecast

Almanac

Astronomy

Apr. 28, 2017 Rise Set
Actual Time
Civil Twilight
Nautical Twilight
Astronomical Twilight
Moon
Length of Visible Light
Length of Day
Tomorrow will be .
, % of the Moon is Illuminated

Today's Extremes

State Highs State Lows

Community

WunderPhotos

WunderBlog® & News

Nearby

Air Quality

  Air Quality AQ Index Pollutant
Not available.

Snow Depth

Station Depth Elevation

Earthquake Activity

City Distance Mag. Time & Date
Minimum magnitude displayed is 2.5.

Coastal Water Temperatures

Place Temperature

Stations

Nearby Weather Stations

Station Location Temp. Windchill Dew Point Humidity Wind Precip. Elev Updated Type
                   

Watches & Warnings

There are currently no watches in effect.